Time;durP1;ratioP1;P1;durP2;ratioP2;P2;SDS_P1;SDS_P2;PMS_P1;PMS_P2;Temp;Humidity;BMP_temperature;BMP_pressure;BME280_temperature;BME280_humidity;BME280_pressure;Samples;Min_cycle;Max_cycle;Signal;HPM_P1;HPM_P2
2024/01/10 00:01:32;;;;;;;183.60;46.50;;;;;;;-128.00;-1.00;-1.00;100299;1282;1003198;-29
2024/01/10 00:03:57;;;;;;;;;;;;;;;-128.00;-1.00;-1.00;100219;1285;1002780;-31
2024/01/10 00:06:23;;;;;;;112.60;32.10;;;;;;;-128.00;-1.00;-1.00;100170;1282;1003040;-33
2024/01/10 00:08:49;;;;;;;200.30;55.90;;;;;;;-128.00;-1.00;-1.00;100259;1286;1012070;-31
2024/01/10 00:11:15;;;;;;;189.40;48.40;;;;;;;-128.00;-1.00;-1.00;100027;1287;1003077;-30
2024/01/10 00:13:41;;;;;;;248.00;62.20;;;;;;;-128.00;-1.00;-1.00;100255;1282;1002810;-30
2024/01/10 00:16:06;;;;;;;125.30;32.60;;;;;;;-128.00;-1.00;-1.00;100269;1282;1056463;-30
2024/01/10 00:18:32;;;;;;;113.40;33.50;;;;;;;-128.00;-1.00;-1.00;100195;1286;1004686;-30
2024/01/10 00:20:58;;;;;;;;;;;;;;;-128.00;-1.00;-1.00;100322;1287;1003075;-32
2024/01/10 00:23:23;;;;;;;123.60;34.40;;;;;;;-128.00;-1.00;-1.00;100209;1283;1003497;-29
2024/01/10 00:25:49;;;;;;;136.60;38.90;;;;;;;-128.00;-1.00;-1.00;100242;1282;1003861;-31
2024/01/10 00:28:18;;;;;;;105.50;28.70;;;;;;;-128.00;-1.00;-1.00;100233;1282;1002990;-30
2024/01/10 00:30:44;;;;;;;133.40;38.00;;;;;;;-128.00;-1.00;-1.00;100250;1282;1013238;-33
2024/01/10 00:33:11;;;;;;;149.70;43.20;;;;;;;-128.00;-1.00;-1.00;100197;1286;1003605;-30
2024/01/10 00:35:36;;;;;;;180.10;46.80;;;;;;;-128.00;-1.00;-1.00;100299;1285;1002860;-31
2024/01/10 00:38:02;;;;;;;163.60;38.80;;;;;;;-128.00;-1.00;-1.00;100230;1285;1002537;-30
2024/01/10 00:40:28;;;;;;;;;;;;;;;-128.00;-1.00;-1.00;100234;1282;1003223;-30
2024/01/10 00:42:53;;;;;;;127.90;37.40;;;;;;;-128.00;-1.00;-1.00;100199;1286;1003721;-32
2024/01/10 00:45:19;;;;;;;341.90;86.60;;;;;;;-128.00;-1.00;-1.00;100252;1286;1003356;-29
2024/01/10 00:47:44;;;;;;;;;;;;;;;-128.00;-1.00;-1.00;100252;1282;1060299;-34
2024/01/10 00:50:10;;;;;;;113.70;33.70;;;;;;;-128.00;-1.00;-1.00;100226;1282;1003308;-34
2024/01/10 00:52:36;;;;;;;103.00;31.50;;;;;;;-128.00;-1.00;-1.00;100194;1282;1003445;-29
2024/01/10 00:55:01;;;;;;;144.80;36.30;;;;;;;-128.00;-1.00;-1.00;100344;1283;1003025;-32
2024/01/10 00:57:27;;;;;;;146.50;38.00;;;;;;;-128.00;-1.00;-1.00;100245;1282;1003109;-30
2024/01/10 00:59:52;;;;;;;148.20;41.30;;;;;;;-128.00;-1.00;-1.00;100216;1287;1003686;-36
2024/01/10 01:02:18;;;;;;;182.10;42.60;;;;;;;-128.00;-1.00;-1.00;100218;1286;1004315;-30
2024/01/10 01:04:43;;;;;;;153.80;40.80;;;;;;;-128.00;-1.00;-1.00;100211;1282;1004426;-31
2024/01/10 01:07:09;;;;;;;141.20;38.20;;;;;;;-128.00;-1.00;-1.00;100262;1283;1003067;-33
2024/01/10 01:09:35;;;;;;;162.80;41.80;;;;;;;-128.00;-1.00;-1.00;100259;1282;1004280;-33
2024/01/10 01:12:00;;;;;;;261.10;60.00;;;;;;;-128.00;-1.00;-1.00;100163;1283;1059224;-33
2024/01/10 01:14:26;;;;;;;194.60;46.60;;;;;;;-128.00;-1.00;-1.00;100263;1282;1003434;-30
2024/01/10 01:16:51;;;;;;;144.60;38.20;;;;;;;-128.00;-1.00;-1.00;100254;1286;1046007;-33
2024/01/10 01:19:17;;;;;;;163.10;45.80;;;;;;;-128.00;-1.00;-1.00;100204;1282;1004614;-33
2024/01/10 01:21:43;;;;;;;148.20;42.10;;;;;;;-128.00;-1.00;-1.00;100249;1286;1003701;-33
2024/01/10 01:24:09;;;;;;;122.30;33.40;;;;;;;-128.00;-1.00;-1.00;100329;1282;1012132;-29
2024/01/10 01:26:34;;;;;;;;;;;;;;;-128.00;-1.00;-1.00;100325;1283;1002812;-30
2024/01/10 01:29:00;;;;;;;132.60;38.80;;;;;;;-128.00;-1.00;-1.00;100266;1282;1003398;-31
2024/01/10 01:31:25;;;;;;;148.30;39.90;;;;;;;-128.00;-1.00;-1.00;100168;1282;1003727;-34
2024/01/10 01:33:51;;;;;;;160.00;41.30;;;;;;;-128.00;-1.00;-1.00;100157;1283;1003176;-30
2024/01/10 01:36:17;;;;;;;132.40;38.80;;;;;;;-128.00;-1.00;-1.00;100266;1283;1039254;-34
2024/01/10 01:38:43;;;;;;;145.00;39.80;;;;;;;-128.00;-1.00;-1.00;100257;1282;1004473;-31
2024/01/10 01:41:09;;;;;;;149.80;44.10;;;;;;;-128.00;-1.00;-1.00;100211;1282;1002533;-30
2024/01/10 01:43:35;;;;;;;155.80;47.00;;;;;;;-128.00;-1.00;-1.00;100265;1283;1004674;-30
2024/01/10 01:46:01;;;;;;;155.30;44.10;;;;;;;-128.00;-1.00;-1.00;100307;1285;1012645;-33
2024/01/10 01:48:26;;;;;;;108.30;30.60;;;;;;;-128.00;-1.00;-1.00;100378;1286;1003583;-29
2024/01/10 01:50:54;;;;;;;155.50;41.70;;;;;;;-128.00;-1.00;-1.00;100175;1282;1003512;-34
2024/01/10 01:53:19;;;;;;;146.30;38.50;;;;;;;-128.00;-1.00;-1.00;100208;1282;1055922;-31
2024/01/10 02:35:00;;;;;;;171.10;45.70;;;;;;;-14.35;97.75;101206.15;103354;1283;613550;-32
2024/01/10 02:37:26;;;;;;;149.30;43.90;;;;;;;-14.22;97.55;101203.95;103435;1289;93658;-30
2024/01/10 02:39:52;;;;;;;;;;;;;;;-14.13;97.97;101200.18;103484;1285;59331;-33
2024/01/10 02:42:18;;;;;;;159.40;42.20;;;;;;;-14.07;98.19;101204.33;103448;1284;59278;-30
2024/01/10 02:44:43;;;;;;;163.40;46.30;;;;;;;-14.11;97.96;101200.19;103453;1284;59544;-31
2024/01/10 02:47:09;;;;;;;168.20;44.70;;;;;;;-14.19;97.91;101199.48;103455;1285;59363;-31
2024/01/10 02:49:35;;;;;;;158.40;44.00;;;;;;;-14.20;97.65;101198.45;103598;1287;60447;-30
2024/01/10 02:52:01;;;;;;;154.90;40.40;;;;;;;-14.09;98.24;101196.40;103619;1287;60406;-31
2024/01/10 02:54:26;;;;;;;173.40;45.90;;;;;;;-13.89;98.78;101187.48;103672;1287;60413;-32
2024/01/10 02:56:52;;;;;;;177.80;51.20;;;;;;;-13.77;99.15;101182.31;103614;1287;60425;-30
2024/01/10 02:59:18;;;;;;;;;;;;;;;-13.63;99.65;101183.86;103718;1287;60721;-32
2024/01/10 03:01:43;;;;;;;143.30;41.60;;;;;;;-13.55;99.75;101183.16;103666;1299;59776;-33
2024/01/10 03:04:09;;;;;;;165.20;45.40;;;;;;;-13.50;99.72;101183.67;103645;1285;59781;-29
2024/01/10 03:06:35;;;;;;;159.50;46.90;;;;;;;-13.49;99.26;101173.16;103693;1287;59646;-30
2024/01/10 03:09:01;;;;;;;185.50;47.00;;;;;;;-13.50;99.00;101173.33;103466;1289;70601;-32
2024/01/10 03:11:27;;;;;;;143.90;40.80;;;;;;;-13.52;98.51;101170.59;103554;1283;59794;-30
2024/01/10 03:14:03;;;;;;;160.50;45.40;;;;;;;-13.51;98.61;101169.38;103427;1284;59818;-32
2024/01/10 03:16:30;;;;;;;154.90;43.30;;;;;;;-13.51;98.34;101171.96;103652;1284;60124;-32
2024/01/10 03:18:56;;;;;;;160.10;42.70;;;;;;;-128.00;-1.00;-1.00;99961;1287;1042727;-31
2024/01/10 03:21:24;;;;;;;143.80;41.90;;;;;;;-128.00;-1.00;-1.00;99949;1285;1002935;-32
2024/01/10 03:23:51;;;;;;;148.70;41.60;;;;;;;-128.00;-1.00;-1.00;99927;1285;1004161;-31
2024/01/10 03:26:17;;;;;;;149.80;43.10;;;;;;;-128.00;-1.00;-1.00;99997;1283;1004765;-31
2024/01/10 03:28:42;;;;;;;154.20;42.90;;;;;;;-128.00;-1.00;-1.00;99932;1283;1004296;-33
2024/01/10 03:31:11;;;;;;;149.60;41.50;;;;;;;-128.00;-1.00;-1.00;99945;1284;1004225;-31
2024/01/10 03:33:36;;;;;;;156.00;43.80;;;;;;;-128.00;-1.00;-1.00;100114;1285;1044644;-33
2024/01/10 03:36:02;;;;;;;;;;;;;;;-128.00;-1.00;-1.00;99880;1285;1003882;-30
2024/01/10 03:38:28;;;;;;;154.50;43.10;;;;;;;-128.00;-1.00;-1.00;100163;1287;1003030;-30
2024/01/10 03:40:54;;;;;;;;;;;;;;;-128.00;-1.00;-1.00;100068;1284;1002891;-30
2024/01/10 03:43:19;;;;;;;217.20;54.50;;;;;;;-128.00;-1.00;-1.00;99955;1285;1002930;-30
2024/01/10 03:45:45;;;;;;;161.50;41.20;;;;;;;-128.00;-1.00;-1.00;99911;1285;1004798;-32
2024/01/10 03:48:10;;;;;;;184.70;48.60;;;;;;;-128.00;-1.00;-1.00;99941;1285;1056824;-29
2024/01/10 03:50:36;;;;;;;148.80;43.80;;;;;;;-128.00;-1.00;-1.00;100038;1287;1002829;-31
2024/01/10 03:53:04;;;;;;;170.70;49.10;;;;;;;-128.00;-1.00;-1.00;100096;1285;1004650;-30
2024/01/10 03:55:29;;;;;;;164.30;47.20;;;;;;;-128.00;-1.00;-1.00;100030;1285;1046157;-31
2024/01/10 03:57:56;;;;;;;158.40;44.40;;;;;;;-128.00;-1.00;-1.00;100154;1285;1003203;-29
2024/01/10 04:00:22;;;;;;;164.70;46.30;;;;;;;-128.00;-1.00;-1.00;99314;1284;2002588;-32
2024/01/10 04:02:47;;;;;;;;;;;;;;;-128.00;-1.00;-1.00;99956;1284;1004702;-33
2024/01/10 04:05:13;;;;;;;157.40;47.00;;;;;;;-128.00;-1.00;-1.00;99970;1285;1002793;-30
2024/01/10 04:07:43;;;;;;;157.60;45.30;;;;;;;-128.00;-1.00;-1.00;99960;1285;1005067;-31
2024/01/10 04:10:10;;;;;;;148.10;40.90;;;;;;;-128.00;-1.00;-1.00;99979;1284;1059590;-33
2024/01/10 04:12:40;;;;;;;191.20;51.60;;;;;;;-128.00;-1.00;-1.00;99948;1285;1003932;-33
2024/01/10 04:15:06;;;;;;;156.10;45.40;;;;;;;-128.00;-1.00;-1.00;99860;1285;1059048;-30
2024/01/10 04:17:32;;;;;;;188.20;52.30;;;;;;;-128.00;-1.00;-1.00;99900;1284;1004245;-33
2024/01/10 04:19:58;;;;;;;168.00;47.70;;;;;;;-128.00;-1.00;-1.00;99886;1283;1004053;-33
2024/01/10 04:22:24;;;;;;;165.10;45.80;;;;;;;-128.00;-1.00;-1.00;99955;1285;1004755;-33
2024/01/10 04:24:50;;;;;;;222.80;59.30;;;;;;;-128.00;-1.00;-1.00;99961;1284;1057356;-33
2024/01/10 04:27:15;;;;;;;192.00;50.90;;;;;;;-128.00;-1.00;-1.00;99907;1284;1004385;-31
2024/01/10 04:29:41;;;;;;;190.00;49.50;;;;;;;-128.00;-1.00;-1.00;100093;1285;1003640;-33
2024/01/10 04:32:07;;;;;;;155.10;43.10;;;;;;;-128.00;-1.00;-1.00;99826;1284;1045427;-31
2024/01/10 04:34:32;;;;;;;211.40;55.40;;;;;;;-128.00;-1.00;-1.00;100063;1284;1004281;-32
2024/01/10 04:36:58;;;;;;;181.90;49.80;;;;;;;-128.00;-1.00;-1.00;100137;1284;1003392;-31
2024/01/10 04:39:23;;;;;;;186.10;50.50;;;;;;;-128.00;-1.00;-1.00;100019;1284;1003243;-28
2024/01/10 04:41:49;;;;;;;187.70;50.60;;;;;;;-128.00;-1.00;-1.00;100018;1285;1003881;-33
2024/01/10 04:44:15;;;;;;;182.80;50.50;;;;;;;-128.00;-1.00;-1.00;100059;1284;1060625;-30
2024/01/10 04:46:41;;;;;;;192.80;47.50;;;;;;;-128.00;-1.00;-1.00;100064;1287;1003153;-30
2024/01/10 04:49:07;;;;;;;151.20;43.90;;;;;;;-128.00;-1.00;-1.00;99949;1284;1013659;-31
2024/01/10 04:51:33;;;;;;;190.00;52.20;;;;;;;-128.00;-1.00;-1.00;99929;1284;1004608;-30
2024/01/10 04:53:59;;;;;;;250.70;67.40;;;;;;;-128.00;-1.00;-1.00;100130;1284;1004723;-31
2024/01/10 04:56:25;;;;;;;202.00;56.50;;;;;;;-128.00;-1.00;-1.00;100038;1285;1054745;-33
2024/01/10 04:58:51;;;;;;;202.80;55.30;;;;;;;-128.00;-1.00;-1.00;99987;1284;1003107;-30
2024/01/10 05:01:16;;;;;;;198.50;54.70;;;;;;;-128.00;-1.00;-1.00;99023;1285;1004494;-33
2024/01/10 05:03:42;;;;;;;;;;;;;;;-128.00;-1.00;-1.00;99936;1285;1003305;-33
2024/01/10 05:06:07;;;;;;;192.50;50.60;;;;;;;-128.00;-1.00;-1.00;99899;1284;1004907;-30
2024/01/10 05:08:33;;;;;;;141.10;43.70;;;;;;;-128.00;-1.00;-1.00;99862;1283;1004731;-33
2024/01/10 05:10:59;;;;;;;197.20;52.90;;;;;;;-128.00;-1.00;-1.00;99867;1284;1004422;-29
2024/01/10 05:13:24;;;;;;;218.90;54.70;;;;;;;-128.00;-1.00;-1.00;100061;1284;1002514;-33
2024/01/10 05:15:50;;;;;;;186.50;51.60;;;;;;;-128.00;-1.00;-1.00;100128;1285;1002641;-33
2024/01/10 05:18:16;;;;;;;198.80;52.40;;;;;;;-128.00;-1.00;-1.00;100081;1284;1055489;-33
2024/01/10 05:20:42;;;;;;;318.10;82.60;;;;;;;-128.00;-1.00;-1.00;99967;1285;1004818;-33
2024/01/10 05:23:07;;;;;;;235.30;63.60;;;;;;;-128.00;-1.00;-1.00;99940;1284;1004546;-32
2024/01/10 05:25:33;;;;;;;213.50;60.70;;;;;;;-128.00;-1.00;-1.00;98461;1289;1003287;-30
2024/01/10 05:27:59;;;;;;;220.20;65.80;;;;;;;-128.00;-1.00;-1.00;99309;1284;1057714;-30
2024/01/10 05:30:25;;;;;;;;;;;;;;;-128.00;-1.00;-1.00;100062;1283;1003333;-33
2024/01/10 05:32:50;;;;;;;221.10;63.60;;;;;;;-128.00;-1.00;-1.00;100075;1285;1003293;-32
2024/01/10 05:35:16;;;;;;;187.00;55.10;;;;;;;-128.00;-1.00;-1.00;100029;1284;1038860;-30
2024/01/10 05:37:42;;;;;;;222.60;62.60;;;;;;;-128.00;-1.00;-1.00;99927;1284;1004478;-33
2024/01/10 05:40:08;;;;;;;208.10;61.80;;;;;;;-128.00;-1.00;-1.00;99950;1283;1004408;-30
2024/01/10 05:42:33;;;;;;;205.90;58.60;;;;;;;-128.00;-1.00;-1.00;100041;1285;1059154;-30
2024/01/10 05:45:00;;;;;;;210.90;63.80;;;;;;;-128.00;-1.00;-1.00;100049;1284;1002880;-30
2024/01/10 05:47:26;;;;;;;212.30;62.90;;;;;;;-128.00;-1.00;-1.00;99813;1285;1003753;-32
2024/01/10 05:49:53;;;;;;;208.90;57.00;;;;;;;-128.00;-1.00;-1.00;100142;1284;1004775;-36
2024/01/10 05:52:19;;;;;;;176.50;51.10;;;;;;;-128.00;-1.00;-1.00;99854;1284;1056248;-31
2024/01/10 05:54:45;;;;;;;190.50;55.10;;;;;;;-128.00;-1.00;-1.00;100120;1284;1003554;-31
2024/01/10 05:57:11;;;;;;;183.50;52.90;;;;;;;-128.00;-1.00;-1.00;100119;1287;1003720;-30
2024/01/10 05:59:36;;;;;;;186.90;51.70;;;;;;;-128.00;-1.00;-1.00;100080;1285;1003342;-32
2024/01/10 06:02:03;;;;;;;291.30;75.80;;;;;;;-128.00;-1.00;-1.00;100092;1284;1002946;-32
2024/01/10 06:04:30;;;;;;;297.10;78.30;;;;;;;-128.00;-1.00;-1.00;100083;1284;1056609;-33
2024/01/10 06:06:58;;;;;;;272.30;75.10;;;;;;;-128.00;-1.00;-1.00;100040;1284;1003129;-29
2024/01/10 06:09:24;;;;;;;234.10;68.90;;;;;;;-128.00;-1.00;-1.00;99291;1285;1013378;-30
2024/01/10 06:11:50;;;;;;;261.00;88.00;;;;;;;-128.00;-1.00;-1.00;99242;1284;1004263;-29
2024/01/10 06:14:16;;;;;;;228.90;72.30;;;;;;;-128.00;-1.00;-1.00;99945;1284;1004488;-32
2024/01/10 06:16:41;;;;;;;534.40;175.30;;;;;;;-128.00;-1.00;-1.00;100088;1285;1056131;-33
2024/01/10 06:19:07;;;;;;;285.70;78.70;;;;;;;-128.00;-1.00;-1.00;100106;1285;1003837;-34
2024/01/10 06:21:32;;;;;;;;;;;;;;;-128.00;-1.00;-1.00;100171;1287;1044235;-33
2024/01/10 06:23:58;;;;;;;298.20;82.40;;;;;;;-128.00;-1.00;-1.00;100080;1284;1002565;-33
2024/01/10 06:26:23;;;;;;;547.50;182.60;;;;;;;-128.00;-1.00;-1.00;100026;1284;1003374;-30
2024/01/10 06:28:49;;;;;;;;;;;;;;;-128.00;-1.00;-1.00;99879;1284;1004943;-29
2024/01/10 06:31:14;;;;;;;180.50;47.50;;;;;;;-128.00;-1.00;-1.00;99947;1284;1003535;-32
2024/01/10 06:33:40;;;;;;;163.10;43.50;;;;;;;-128.00;-1.00;-1.00;99879;1284;1004911;-33
2024/01/10 06:36:06;;;;;;;207.70;60.90;;;;;;;-128.00;-1.00;-1.00;99999;1284;1004331;-33
2024/01/10 06:38:31;;;;;;;;;;;;;;;-128.00;-1.00;-1.00;99890;1285;1060094;-33
2024/01/10 06:40:57;;;;;;;224.30;59.00;;;;;;;-128.00;-1.00;-1.00;99913;1284;1004851;-33
2024/01/10 06:43:23;;;;;;;184.20;52.10;;;;;;;-128.00;-1.00;-1.00;99901;1285;1047029;-33
2024/01/10 06:45:49;;;;;;;173.60;48.10;;;;;;;-128.00;-1.00;-1.00;99693;1284;1004703;-30
2024/01/10 06:48:15;;;;;;;182.50;47.50;;;;;;;-128.00;-1.00;-1.00;99879;1284;1005077;-30
2024/01/10 06:50:41;;;;;;;;;;;;;;;-128.00;-1.00;-1.00;99928;1285;1004544;-30
2024/01/10 06:53:07;;;;;;;212.10;56.90;;;;;;;-128.00;-1.00;-1.00;99929;1287;1004139;-31
2024/01/10 06:55:33;;;;;;;189.90;50.00;;;;;;;-128.00;-1.00;-1.00;99779;1285;1004110;-30
2024/01/10 06:57:59;;;;;;;229.80;61.50;;;;;;;-128.00;-1.00;-1.00;99941;1284;1005113;-33
2024/01/10 07:00:25;;;;;;;195.30;59.70;;;;;;;-128.00;-1.00;-1.00;99890;1284;1004378;-30
2024/01/10 07:02:50;;;;;;;201.30;55.40;;;;;;;-128.00;-1.00;-1.00;99960;1285;1014449;-31
2024/01/10 07:05:16;;;;;;;178.30;49.20;;;;;;;-128.00;-1.00;-1.00;99940;1284;1004015;-32
2024/01/10 07:07:42;;;;;;;217.20;56.00;;;;;;;-128.00;-1.00;-1.00;99898;1285;1063403;-30
2024/01/10 07:10:08;;;;;;;;;;;;;;;-128.00;-1.00;-1.00;99976;1285;1004868;-29
2024/01/10 07:12:34;;;;;;;202.80;56.90;;;;;;;-128.00;-1.00;-1.00;99905;1285;1003763;-31
2024/01/10 07:15:00;;;;;;;190.90;50.70;;;;;;;-128.00;-1.00;-1.00;99919;1287;1045689;-32
2024/01/10 07:17:25;;;;;;;217.50;56.10;;;;;;;-128.00;-1.00;-1.00;99767;1285;1004394;-32
2024/01/10 07:19:51;;;;;;;178.90;51.10;;;;;;;-128.00;-1.00;-1.00;99896;1283;1004542;-33
2024/01/10 07:22:17;;;;;;;194.20;56.00;;;;;;;-128.00;-1.00;-1.00;99906;1285;1003868;-30
2024/01/10 07:24:44;;;;;;;195.00;51.60;;;;;;;-128.00;-1.00;-1.00;99956;1285;1004825;-31
2024/01/10 07:27:09;;;;;;;;;;;;;;;-128.00;-1.00;-1.00;99898;1284;1004538;-33
2024/01/10 07:29:35;;;;;;;166.00;46.60;;;;;;;-128.00;-1.00;-1.00;98615;1284;1003608;-33
2024/01/10 07:32:01;;;;;;;175.50;49.50;;;;;;;-128.00;-1.00;-1.00;98559;1285;1054236;-33
2024/01/10 07:34:26;;;;;;;190.30;51.60;;;;;;;-128.00;-1.00;-1.00;99866;1284;1004336;-30
2024/01/10 07:36:54;;;;;;;145.00;46.10;;;;;;;-128.00;-1.00;-1.00;99854;1287;1047015;-34
2024/01/10 07:39:19;;;;;;;176.20;50.60;;;;;;;-128.00;-1.00;-1.00;99895;1284;1004044;-32
2024/01/10 07:41:45;;;;;;;;;;;;;;;-128.00;-1.00;-1.00;99950;1284;1004640;-32
2024/01/10 07:44:10;;;;;;;210.80;53.50;;;;;;;-128.00;-1.00;-1.00;99912;1285;1004216;-30
2024/01/10 07:46:39;;;;;;;179.20;48.60;;;;;;;-128.00;-1.00;-1.00;99882;1285;1003865;-33
2024/01/10 07:49:05;;;;;;;179.50;50.40;;;;;;;-128.00;-1.00;-1.00;99861;1289;1046688;-32
2024/01/10 07:51:32;;;;;;;157.20;45.00;;;;;;;-128.00;-1.00;-1.00;99872;1289;1003209;-30
2024/01/10 07:53:59;;;;;;;185.80;50.20;;;;;;;-128.00;-1.00;-1.00;100081;1285;1002626;-32
2024/01/10 07:56:25;;;;;;;183.10;51.40;;;;;;;-128.00;-1.00;-1.00;100072;1284;1003565;-32
2024/01/10 07:58:51;;;;;;;172.70;49.20;;;;;;;-128.00;-1.00;-1.00;100089;1284;1002373;-32
2024/01/10 08:01:17;;;;;;;168.40;47.30;;;;;;;-128.00;-1.00;-1.00;99825;1285;1039477;-30
2024/01/10 08:03:43;;;;;;;201.30;54.70;;;;;;;-128.00;-1.00;-1.00;100079;1285;1002749;-33
2024/01/10 08:06:10;;;;;;;;;;;;;;;-128.00;-1.00;-1.00;100084;1287;1003461;-32
2024/01/10 08:08:36;;;;;;;195.90;50.10;;;;;;;-128.00;-1.00;-1.00;99992;1285;1002271;-33
2024/01/10 08:11:02;;;;;;;220.50;68.00;;;;;;;-128.00;-1.00;-1.00;99890;1284;1004786;-31
2024/01/10 08:13:28;;;;;;;187.00;53.20;;;;;;;-128.00;-1.00;-1.00;99977;1284;1003794;-32
2024/01/10 08:15:54;;;;;;;;;;;;;;;-128.00;-1.00;-1.00;99167;1284;1003509;-33
2024/01/10 08:18:20;;;;;;;203.50;53.20;;;;;;;-128.00;-1.00;-1.00;99244;1284;2003631;-31
2024/01/10 08:20:45;;;;;;;;;;;;;;;-128.00;-1.00;-1.00;99974;1285;1058441;-32
2024/01/10 08:23:11;;;;;;;168.50;51.30;;;;;;;-128.00;-1.00;-1.00;99883;1284;1004114;-34
2024/01/10 08:25:38;;;;;;;205.70;56.00;;;;;;;-128.00;-1.00;-1.00;99949;1284;1003496;-33
2024/01/10 08:28:04;;;;;;;174.00;51.70;;;;;;;-128.00;-1.00;-1.00;99872;1285;1048399;-33
2024/01/10 08:30:29;;;;;;;178.10;54.20;;;;;;;-128.00;-1.00;-1.00;99284;1285;1004311;-32
2024/01/10 08:32:55;;;;;;;192.80;52.60;;;;;;;-128.00;-1.00;-1.00;100041;1284;1003606;-36
2024/01/10 08:35:20;;;;;;;189.40;50.30;;;;;;;-128.00;-1.00;-1.00;100075;1284;1003913;-34
2024/01/10 08:37:46;;;;;;;205.60;54.00;;;;;;;-128.00;-1.00;-1.00;100123;1284;1003077;-29
2024/01/10 08:40:14;;;;;;;191.20;54.80;;;;;;;-128.00;-1.00;-1.00;99994;1284;1059213;-31
2024/01/10 08:42:43;;;;;;;188.70;52.60;;;;;;;-128.00;-1.00;-1.00;100075;1284;1002984;-32
2024/01/10 08:45:11;;;;;;;175.60;51.70;;;;;;;-128.00;-1.00;-1.00;100026;1287;1058928;-29
2024/01/10 08:47:37;;;;;;;198.10;57.10;;;;;;;-128.00;-1.00;-1.00;98616;1285;1003579;-36
2024/01/10 08:50:08;;;;;;;205.90;55.70;;;;;;;-128.00;-1.00;-1.00;100104;1285;1004053;-33
2024/01/10 08:52:37;;;;;;;188.20;54.90;;;;;;;-128.00;-1.00;-1.00;100075;1285;1060354;-35
2024/01/10 08:55:05;;;;;;;196.10;58.30;;;;;;;-128.00;-1.00;-1.00;100001;1284;1057145;-32
2024/01/10 08:57:31;;;;;;;206.00;60.10;;;;;;;-128.00;-1.00;-1.00;100020;1283;1058408;-31
2024/01/10 08:59:57;;;;;;;;;;;;;;;-128.00;-1.00;-1.00;100113;1284;1002960;-32
2024/01/10 09:02:23;;;;;;;186.10;57.80;;;;;;;-128.00;-1.00;-1.00;100032;1287;1003766;-29
2024/01/10 09:04:50;;;;;;;216.90;65.40;;;;;;;-128.00;-1.00;-1.00;99304;1284;1060138;-29
2024/01/10 09:07:17;;;;;;;203.50;63.40;;;;;;;-128.00;-1.00;-1.00;100030;1284;1003888;-31
2024/01/10 09:09:43;;;;;;;232.80;71.20;;;;;;;-128.00;-1.00;-1.00;99960;1284;1002604;-32
2024/01/10 09:12:09;;;;;;;216.50;67.90;;;;;;;-128.00;-1.00;-1.00;99873;1284;1004988;-30
2024/01/10 09:14:35;;;;;;;255.90;73.90;;;;;;;-128.00;-1.00;-1.00;99922;1283;1005130;-29
2024/01/10 09:17:02;;;;;;;233.00;70.40;;;;;;;-128.00;-1.00;-1.00;99869;1285;1003602;-30
2024/01/10 09:19:30;;;;;;;228.10;67.40;;;;;;;-128.00;-1.00;-1.00;99665;1285;1004525;-30
2024/01/10 09:21:57;;;;;;;212.50;68.30;;;;;;;-128.00;-1.00;-1.00;99622;1284;1004292;-30
2024/01/10 09:24:25;;;;;;;208.20;67.50;;;;;;;-128.00;-1.00;-1.00;99613;1285;1004473;-32
2024/01/10 09:26:52;;;;;;;250.40;80.60;;;;;;;-128.00;-1.00;-1.00;99752;1290;1045055;-32
2024/01/10 09:29:17;;;;;;;231.10;74.60;;;;;;;-128.00;-1.00;-1.00;99914;1285;1004407;-31
2024/01/10 09:31:43;;;;;;;230.50;74.30;;;;;;;-128.00;-1.00;-1.00;99785;1285;1004339;-33
2024/01/10 09:34:09;;;;;;;227.90;76.20;;;;;;;-128.00;-1.00;-1.00;99924;1287;1058631;-34
2024/01/10 09:36:34;;;;;;;212.00;72.50;;;;;;;-128.00;-1.00;-1.00;99861;1284;1004394;-31
2024/01/10 09:39:02;;;;;;;256.00;82.50;;;;;;;-128.00;-1.00;-1.00;100031;1284;1004340;-32
2024/01/10 09:41:28;;;;;;;228.40;77.70;;;;;;;-128.00;-1.00;-1.00;99854;1284;1059790;-34
2024/01/10 09:43:53;;;;;;;222.90;72.00;;;;;;;-128.00;-1.00;-1.00;99923;1285;1004677;-34
2024/01/10 09:46:19;;;;;;;235.10;76.00;;;;;;;-128.00;-1.00;-1.00;99905;1284;1004038;-30
2024/01/10 09:48:45;;;;;;;223.30;74.20;;;;;;;-128.00;-1.00;-1.00;99881;1285;1005011;-31
2024/01/10 09:51:12;;;;;;;250.50;83.20;;;;;;;-128.00;-1.00;-1.00;99860;1283;1004602;-34
2024/01/10 09:53:38;;;;;;;271.60;99.90;;;;;;;-128.00;-1.00;-1.00;99922;1284;1003729;-33
2024/01/10 09:56:04;;;;;;;221.10;74.00;;;;;;;-128.00;-1.00;-1.00;99920;1284;1004702;-30
2024/01/10 09:58:30;;;;;;;;;;;;;;;-128.00;-1.00;-1.00;99828;1283;1003991;-31
2024/01/10 10:00:55;;;;;;;249.40;81.00;;;;;;;-128.00;-1.00;-1.00;99925;1285;1004515;-31
2024/01/10 10:03:21;;;;;;;286.60;97.90;;;;;;;-128.00;-1.00;-1.00;99780;1284;1047190;-34
2024/01/10 10:05:47;;;;;;;219.50;76.90;;;;;;;-128.00;-1.00;-1.00;99876;1285;1004846;-32
2024/01/10 10:08:15;;;;;;;212.80;70.10;;;;;;;-128.00;-1.00;-1.00;99676;1289;1005278;-32
2024/01/10 10:10:44;;;;;;;212.10;72.90;;;;;;;-128.00;-1.00;-1.00;99835;1285;1014615;-32
2024/01/10 10:13:11;;;;;;;192.80;65.10;;;;;;;-128.00;-1.00;-1.00;99902;1284;1046103;-32
2024/01/10 10:15:36;;;;;;;211.20;70.30;;;;;;;-128.00;-1.00;-1.00;99825;1284;1004433;-31
2024/01/10 10:18:02;;;;;;;247.70;77.90;;;;;;;-128.00;-1.00;-1.00;99875;1285;1004743;-32
2024/01/10 10:23:00;;;;;;;223.90;81.20;;;;;;;-128.00;-1.00;-1.00;99874;1284;1014367;-33
2024/01/10 10:25:34;;;;;;;196.40;66.50;;;;;;;-128.00;-1.00;-1.00;99842;1287;1004565;-33
2024/01/10 10:28:00;;;;;;;222.90;73.40;;;;;;;-128.00;-1.00;-1.00;99739;1285;1048240;-32
2024/01/10 10:30:26;;;;;;;183.00;59.10;;;;;;;-128.00;-1.00;-1.00;99809;1284;1004478;-31
2024/01/10 10:32:53;;;;;;;181.20;61.10;;;;;;;-128.00;-1.00;-1.00;99884;1285;1003784;-30
2024/01/10 10:35:20;;;;;;;199.30;70.80;;;;;;;-128.00;-1.00;-1.00;99848;1287;1005157;-33
2024/01/10 10:37:48;;;;;;;195.80;68.30;;;;;;;-128.00;-1.00;-1.00;99955;1284;1005116;-31
2024/01/10 10:40:14;;;;;;;182.30;62.00;;;;;;;-128.00;-1.00;-1.00;99940;1287;1005061;-33
2024/01/10 10:42:42;;;;;;;180.50;60.50;;;;;;;-128.00;-1.00;-1.00;99972;1285;1004884;-35
2024/01/10 10:45:08;;;;;;;173.70;59.20;;;;;;;-128.00;-1.00;-1.00;99933;1284;1004848;-31
2024/01/10 10:47:36;;;;;;;193.40;67.70;;;;;;;-128.00;-1.00;-1.00;99883;1284;1003697;-32
2024/01/10 10:50:03;;;;;;;179.00;62.30;;;;;;;-128.00;-1.00;-1.00;99878;1284;1005202;-32
2024/01/10 10:52:29;;;;;;;184.70;63.40;;;;;;;-128.00;-1.00;-1.00;99889;1287;1004613;-31
2024/01/10 10:54:56;;;;;;;182.70;65.00;;;;;;;-128.00;-1.00;-1.00;99868;1287;1005332;-32
2024/01/10 10:57:22;;;;;;;196.80;69.20;;;;;;;-128.00;-1.00;-1.00;99887;1284;1005236;-32
2024/01/10 10:59:48;;;;;;;180.00;63.40;;;;;;;-128.00;-1.00;-1.00;99856;1284;1004863;-31
2024/01/10 11:02:16;;;;;;;475.40;186.50;;;;;;;-128.00;-1.00;-1.00;99887;1285;1003914;-31
2024/01/10 11:04:42;;;;;;;244.10;91.00;;;;;;;-128.00;-1.00;-1.00;99707;1289;1003789;-31
2024/01/10 11:07:07;;;;;;;208.00;75.60;;;;;;;-128.00;-1.00;-1.00;99947;1284;1005078;-29
2024/01/10 11:09:33;;;;;;;233.10;81.90;;;;;;;-128.00;-1.00;-1.00;99891;1284;1047350;-31
2024/01/10 11:12:11;;;;;;;;;;;;;;;-128.00;-1.00;-1.00;99965;1285;1004318;-31
2024/01/10 11:15:02;;;;;;;190.10;70.90;;;;;;;-128.00;-1.00;-1.00;99901;1284;1056232;-32
2024/01/10 11:17:50;;;;;;;174.60;61.40;;;;;;;-128.00;-1.00;-1.00;99706;1284;1059039;-33
2024/01/10 11:20:36;;;;;;;164.60;60.40;;;;;;;-128.00;-1.00;-1.00;99810;1285;1013955;-32
2024/01/10 11:23:22;;;;;;;180.40;65.80;;;;;;;-128.00;-1.00;-1.00;99800;1287;1044817;-32
2024/01/10 11:25:48;;;;;;;179.90;64.70;;;;;;;-128.00;-1.00;-1.00;99859;1283;1046795;-33
2024/01/10 11:28:14;;;;;;;215.70;83.40;;;;;;;-128.00;-1.00;-1.00;99700;1285;1004029;-32
2024/01/10 11:30:52;;;;;;;481.60;259.50;;;;;;;-128.00;-1.00;-1.00;99847;1287;1004560;-30
2024/01/10 11:33:23;;;;;;;196.30;73.10;;;;;;;-128.00;-1.00;-1.00;99880;1285;1015205;-31
2024/01/10 11:36:10;;;;;;;245.70;103.10;;;;;;;-128.00;-1.00;-1.00;99863;1287;1044622;-33
2024/01/10 11:39:01;;;;;;;184.80;73.20;;;;;;;-128.00;-1.00;-1.00;99894;1284;1047843;-33
2024/01/10 11:41:30;;;;;;;171.30;61.30;;;;;;;-128.00;-1.00;-1.00;99910;1285;1063692;-33
2024/01/10 11:44:28;;;;;;;178.40;64.70;;;;;;;-128.00;-1.00;-1.00;99826;1285;1056141;-31